Time;durP1;ratioP1;P1;durP2;ratioP2;P2;SDS_P1;SDS_P2;PMS_P1;PMS_P2;Temp;Humidity;BMP_temperature;BMP_pressure;BME280_temperature;BME280_humidity;BME280_pressure;Samples;Min_cycle;Max_cycle;Signal;HPM_P1;HPM_P2
2021/08/13 00:00:51;;;;;;;;;11.75;11.00;;;;;23.44;60.48;101919.03;4959617;28;45400;-79
2021/08/13 00:03:17;;;;;;;;;9.25;7.50;;;;;23.33;60.05;101915.31;4959722;28;45360;-79
2021/08/13 00:05:42;;;;;;;;;13.00;11.50;;;;;23.29;60.22;101932.56;4959342;28;45318;-78
2021/08/13 00:08:09;;;;;;;;;11.00;9.75;;;;;23.25;60.37;101931.06;4959024;28;45322;-78
2021/08/13 00:10:34;;;;;;;;;10.75;10.00;;;;;23.19;59.99;101932.31;4958460;28;45148;-77
2021/08/13 00:12:59;;;;;;;;;11.75;9.50;;;;;23.12;60.34;101921.16;4962010;28;46674;-77
2021/08/13 00:15:25;;;;;;;;;9.25;9.25;;;;;23.06;60.81;101929.66;4963067;28;45432;-77
2021/08/13 00:17:51;;;;;;;;;13.00;8.25;;;;;23.02;60.67;101925.44;4945640;28;45339;-77
2021/08/13 00:20:16;;;;;;;;;9.00;8.75;;;;;22.95;60.43;101933.03;4963010;28;45417;-77
2021/08/13 00:22:42;;;;;;;;;12.00;10.00;;;;;22.89;60.70;101928.94;4962774;28;45380;-77
2021/08/13 00:25:07;;;;;;;;;13.50;10.50;;;;;22.87;60.64;101930.00;4958800;28;45248;-77
2021/08/13 00:27:33;;;;;;;;;10.00;10.00;;;;;22.83;60.80;101929.34;4962701;28;45263;-76
2021/08/13 00:29:58;;;;;;;;;11.00;11.00;;;;;22.80;60.77;101937.59;4962813;28;45346;-77
2021/08/13 00:32:23;;;;;;;;;11.00;11.00;;;;;22.77;60.42;101933.31;4962854;28;45450;-76
2021/08/13 00:34:49;;;;;;;;;13.00;11.00;;;;;22.76;60.65;101928.91;4963206;28;45428;-77
2021/08/13 00:37:14;;;;;;;;;11.50;9.00;;;;;22.74;60.65;101929.97;4965016;28;45314;-77
2021/08/13 00:39:39;;;;;;;;;12.75;11.25;;;;;22.73;60.49;101938.97;4945983;28;46376;-76
2021/08/13 00:42:05;;;;;;;;;8.50;8.50;;;;;22.72;60.80;101938.09;4974842;28;45554;-77
2021/08/13 00:44:31;;;;;;;;;14.00;11.75;;;;;22.70;60.25;101951.63;4962517;28;45426;-77
2021/08/13 00:46:57;;;;;;;;;9.75;9.00;;;;;22.66;60.82;101952.75;4962727;28;45347;-77
2021/08/13 00:49:22;;;;;;;;;10.75;10.00;;;;;22.63;60.32;101950.28;4962592;28;45382;-77
2021/08/13 00:51:48;;;;;;;;;13.00;10.75;;;;;22.61;60.48;101941.47;4962493;28;46095;-77
2021/08/13 00:54:14;;;;;;;;;9.50;9.50;;;;;22.58;60.12;101945.22;4961914;28;45453;-76
2021/08/13 00:56:39;;;;;;;;;11.75;11.25;;;;;22.56;60.07;101940.91;4962281;28;45296;-76
2021/08/13 00:59:07;;;;;;;;;13.00;12.00;;;;;22.55;60.24;101949.91;4962434;28;45552;-80
2021/08/13 01:01:32;;;;;;;;;13.25;11.00;;;;;22.51;60.69;101951.94;4973390;28;45598;-79
2021/08/13 01:03:57;;;;;;;;;12.50;12.50;;;;;22.49;60.68;101952.00;4945911;28;45741;-75
2021/08/13 01:06:23;;;;;;;;;12.75;10.25;;;;;22.47;60.61;101958.47;4962558;28;45279;-81
2021/08/13 01:08:48;;;;;;;;;10.00;9.50;;;;;22.45;60.18;101961.22;4964711;28;45635;-82
2021/08/13 01:11:45;;;;;;;;;10.00;9.25;;;;;22.44;60.76;101951.47;4971574;28;45650;-81
2021/08/13 01:14:32;;;;;;;;;13.00;11.00;;;;;22.45;60.79;101953.19;4961547;28;45395;-81
2021/08/13 01:16:59;;;;;;;;;14.00;10.75;;;;;22.44;60.67;101948.81;4962375;28;45347;-81
2021/08/13 01:19:52;;;;;;;;;12.25;10.25;;;;;22.46;60.34;101952.22;4971959;28;45481;-80
2021/08/13 01:22:25;;;;;;;;;11.00;11.00;;;;;22.45;61.11;101953.19;4971854;28;46394;-79
2021/08/13 01:24:53;;;;;;;;;10.50;10.25;;;;;22.44;61.13;101954.16;4963122;28;45336;-79
2021/08/13 01:27:34;;;;;;;;;10.00;10.00;;;;;22.43;60.84;101956.91;4944228;28;45454;-80
2021/08/13 01:30:06;;;;;;;;;12.00;12.00;;;;;22.37;60.94;101948.31;4972680;28;45383;-79
2021/08/13 01:32:37;;;;;;;;;10.25;10.25;;;;;22.37;60.71;101952.84;4961834;28;47581;-79
2021/08/13 01:35:12;;;;;;;;;9.75;9.50;;;;;22.34;61.04;101945.00;4961682;28;45339;-79
2021/08/13 01:37:46;;;;;;;;;13.50;12.25;;;;;22.29;60.29;101945.28;4976009;28;45408;-79
2021/08/13 01:40:15;;;;;;;;;11.75;10.25;;;;;22.25;60.71;101946.44;4955171;28;46038;-79
2021/08/13 01:42:42;;;;;;;;;12.00;11.00;;;;;22.21;61.04;101939.56;4961594;28;45416;-79
2021/08/13 01:45:09;;;;;;;;;13.00;10.50;;;;;22.15;60.64;101936.31;4961818;28;45235;-81
2021/08/13 01:47:36;;;;;;;;;13.25;10.75;;;;;22.17;61.37;101941.59;4962071;28;45298;-80
2021/08/13 01:50:02;;;;;;;;;11.00;11.00;;;;;22.14;61.06;101939.09;4955280;28;45715;-79
2021/08/13 01:52:29;;;;;;;;;11.25;10.50;;;;;22.13;61.46;101951.63;4961544;28;45801;-79
2021/08/13 01:54:56;;;;;;;;;12.00;8.50;;;;;22.17;61.30;101952.28;4973181;28;45363;-81
2021/08/13 01:57:22;;;;;;;;;11.50;11.25;;;;;22.11;61.46;101942.81;4944276;28;45328;-84
2021/08/13 01:59:49;;;;;;;;;11.25;11.25;;;;;22.09;60.98;101946.56;4961402;28;45519;-81
2021/08/13 02:02:15;;;;;;;;;11.25;9.50;;;;;22.07;61.31;101954.69;4972875;28;46239;-80
2021/08/13 02:04:42;;;;;;;;;11.00;11.00;;;;;22.05;61.18;101955.75;4961455;28;45260;-79
2021/08/13 02:07:10;;;;;;;;;12.25;11.50;;;;;22.00;60.89;101943.50;4961325;28;45298;-79
2021/08/13 02:09:36;;;;;;;;;13.25;9.75;;;;;21.99;61.02;101948.94;4963859;28;45484;-82
2021/08/13 02:12:01;;;;;;;;;11.75;11.75;;;;;21.95;61.12;101945.63;4954475;28;48105;-79
2021/08/13 02:14:27;;;;;;;;;13.00;12.25;;;;;21.93;61.79;101950.19;4945080;28;45787;-79
2021/08/13 02:16:55;;;;;;;;;12.50;10.75;;;;;21.91;61.82;101947.63;4943972;28;45502;-81
2021/08/13 02:19:27;;;;;;;;;11.25;9.25;;;;;21.90;61.55;101947.72;4950550;28;45997;-82
2021/08/13 02:21:53;;;;;;;;;8.50;8.50;;;;;21.89;61.50;101960.25;4947203;28;48092;-81
2021/08/13 02:24:19;;;;;;;;;9.25;9.00;;;;;21.85;61.37;101957.81;4968436;28;45207;-81
2021/08/13 02:26:45;;;;;;;;;11.00;11.00;;;;;21.78;61.13;101949.31;4958335;28;45430;-81
2021/08/13 02:29:11;;;;;;;;;11.50;11.00;;;;;21.73;61.27;101946.06;4962040;28;45324;-81
2021/08/13 02:31:37;;;;;;;;;13.00;11.50;;;;;21.69;60.90;101942.72;4972550;28;46548;-81
2021/08/13 02:34:02;;;;;;;;;10.25;9.25;;;;;21.67;60.80;101945.50;4960613;28;45427;-82
2021/08/13 02:36:45;;;;;;;;;13.25;12.00;;;;;21.64;60.82;101943.00;4961363;28;46071;-83
2021/08/13 02:39:20;;;;;;;;;16.00;15.25;;;;;21.64;61.23;101951.03;4957255;28;45738;-82
2021/08/13 02:41:48;;;;;;;;;13.25;12.25;;;;;21.64;61.15;101950.16;4975299;28;45607;-81
2021/08/13 02:44:17;;;;;;;;;11.00;10.00;;;;;21.65;61.15;101951.88;4962787;28;45314;-80
2021/08/13 02:46:53;;;;;;;;;9.00;9.00;;;;;21.64;61.45;101951.03;4961160;28;45393;-83
2021/08/13 02:49:20;;;;;;;;;10.00;10.00;;;;;21.62;60.74;101949.38;4943393;28;45418;-84
2021/08/13 02:51:51;;;;;;;;;10.25;10.25;;;;;21.57;60.97;101947.88;4960557;28;45464;-83
2021/08/13 02:54:24;;;;;;;;;12.75;12.00;;;;;21.54;60.38;101948.03;4960616;28;45533;-85
2021/08/13 02:56:51;;;;;;;;;10.25;10.25;;;;;21.50;60.19;101959.88;4955780;28;45424;-85
2021/08/13 02:59:18;;;;;;;;;10.75;10.75;;;;;21.43;59.78;101966.56;4960600;28;45269;-86
2021/08/13 03:01:46;;;;;;;;;13.25;11.75;;;;;21.40;60.31;101951.56;4959637;28;46274;-84
2021/08/13 03:04:12;;;;;;;;;11.25;9.75;;;;;21.39;60.06;101943.63;4960940;28;45618;-84
2021/08/13 03:06:40;;;;;;;;;10.25;9.75;;;;;21.39;60.30;101943.63;4973190;28;45356;-87
2021/08/13 03:09:08;;;;;;;;;10.75;10.75;;;;;21.40;60.19;101942.69;4960533;28;45517;-81
2021/08/13 03:11:36;;;;;;;;;12.75;10.00;;;;;21.39;59.99;101956.97;4972327;28;45536;-81
2021/08/13 03:14:03;;;;;;;;;10.50;8.50;;;;;21.42;59.71;101964.84;4960568;28;45665;-81
2021/08/13 03:16:31;;;;;;;;;10.75;8.25;;;;;21.38;59.58;101956.16;4960413;28;45541;-81
2021/08/13 03:18:57;;;;;;;;;9.00;9.00;;;;;21.39;59.50;101956.97;4952614;28;45411;-82
2021/08/13 03:21:24;;;;;;;;;7.25;7.25;;;;;21.40;59.39;101969.41;4958611;28;46253;-80
2021/08/13 03:23:50;;;;;;;;;10.00;8.25;;;;;21.38;59.07;101960.63;4963607;28;45362;-82
2021/08/13 03:26:16;;;;;;;;;8.25;8.25;;;;;21.35;59.30;101959.88;4969666;28;45373;-81
2021/08/13 03:28:41;;;;;;;;;8.50;8.50;;;;;21.30;58.67;101958.41;4960402;28;45421;-84
2021/08/13 03:31:07;;;;;;;;;8.75;6.75;;;;;21.28;58.70;101957.66;4972857;28;45661;-80
2021/08/13 03:33:35;;;;;;;;;10.50;7.75;;;;;21.27;59.09;101962.13;4960522;28;45435;-81
2021/08/13 03:36:00;;;;;;;;;8.00;7.75;;;;;21.24;58.55;101968.50;4959796;28;45218;-80
2021/08/13 03:38:26;;;;;;;;;10.25;7.25;;;;;21.21;58.35;101968.69;4959942;28;45206;-80
2021/08/13 03:40:51;;;;;;;;;5.50;5.25;;;;;21.18;58.23;101966.22;4972614;28;45250;-80
2021/08/13 03:43:17;;;;;;;;;7.25;6.50;;;;;21.16;58.27;101965.44;4942595;28;45384;-81
2021/08/13 03:45:42;;;;;;;;;9.50;8.50;;;;;21.13;58.32;101960.28;4960659;28;45259;-80
2021/08/13 03:48:07;;;;;;;;;7.00;6.25;;;;;21.14;58.51;101960.19;4946116;28;46136;-82
2021/08/13 03:50:33;;;;;;;;;7.25;6.50;;;;;21.14;58.29;101960.19;4975506;28;45430;-81
2021/08/13 03:52:59;;;;;;;;;8.25;7.00;;;;;21.11;58.26;101971.03;4963537;28;45389;-81
2021/08/13 03:55:24;;;;;;;;;5.75;5.50;;;;;21.04;57.53;101960.81;4957905;28;45417;-89
2021/08/13 03:57:49;;;;;;;;;7.50;4.25;;;;;20.98;58.23;101970.03;4963094;28;45496;-87
2021/08/13 04:00:15;;;;;;;;;5.25;4.25;;;;;20.92;57.89;101965.88;4963248;28;45533;-87
2021/08/13 04:02:41;;;;;;;;;7.50;6.50;;;;;20.92;57.69;101963.22;4963399;28;45777;-82
2021/08/13 04:05:06;;;;;;;;;7.00;5.50;;;;;20.90;57.98;101965.13;4966675;28;45400;-82
2021/08/13 04:07:32;;;;;;;;;6.25;4.00;;;;;20.92;57.63;101964.06;4963287;28;45503;-81
2021/08/13 04:09:57;;;;;;;;;5.25;4.25;;;;;20.88;57.62;101967.88;4976986;28;46407;-81
2021/08/13 04:12:23;;;;;;;;;7.50;5.75;;;;;20.87;57.77;101983.97;4966282;28;45413;-81
2021/08/13 04:14:48;;;;;;;;;5.75;5.25;;;;;20.82;57.74;101975.41;4953281;28;45382;-80
2021/08/13 04:17:14;;;;;;;;;6.00;5.00;;;;;20.79;57.63;101984.44;4963149;28;45435;-82
2021/08/13 04:19:41;;;;;;;;;5.50;5.50;;;;;20.78;57.93;101988.06;4963148;28;45364;-81
2021/08/13 04:22:07;;;;;;;;;6.50;4.75;;;;;20.74;57.79;101989.19;4962639;28;45521;-80
2021/08/13 04:24:33;;;;;;;;;5.75;4.75;;;;;20.75;57.70;102001.59;4962842;28;45235;-80
2021/08/13 04:27:00;;;;;;;;;4.75;4.75;;;;;20.73;57.46;101999.00;4962489;28;45456;-79
2021/08/13 04:29:26;;;;;;;;;3.50;3.25;;;;;20.69;57.65;101992.13;4968887;28;45342;-81
2021/08/13 04:31:51;;;;;;;;;5.00;5.00;;;;;20.66;57.60;101990.50;4968088;28;45457;-82
2021/08/13 04:34:16;;;;;;;;;6.00;5.00;;;;;20.64;57.83;101986.19;4962769;28;45407;-85
2021/08/13 04:36:42;;;;;;;;;4.00;4.00;;;;;20.62;58.04;101980.91;4962007;28;45345;-79
2021/08/13 04:39:09;;;;;;;;;6.00;6.00;;;;;20.64;58.22;101997.69;4968161;28;45473;-80
2021/08/13 04:41:34;;;;;;;;;9.00;4.25;;;;;20.67;58.18;101994.00;4969673;28;45595;-80
2021/08/13 04:44:00;;;;;;;;;5.25;5.25;;;;;20.63;57.95;101985.31;4963036;28;45235;-80
2021/08/13 04:46:25;;;;;;;;;4.75;4.00;;;;;20.63;58.13;101992.44;4976797;28;45611;-80
2021/08/13 04:48:50;;;;;;;;;6.50;4.75;;;;;20.64;58.19;101994.19;4972653;28;45209;-80
2021/08/13 04:51:16;;;;;;;;;7.75;6.50;;;;;20.65;58.26;102001.22;4962718;28;45287;-78
2021/08/13 04:53:41;;;;;;;;;5.75;5.75;;;;;20.64;59.03;102005.72;4962030;28;45376;-78
2021/08/13 04:56:06;;;;;;;;;6.75;5.75;;;;;20.68;59.60;102012.63;4961492;28;45445;-79
2021/08/13 04:58:31;;;;;;;;;4.00;4.00;;;;;20.69;59.53;102014.31;4974347;28;45256;-78
2021/08/13 05:00:57;;;;;;;;;6.50;6.50;;;;;20.69;59.05;102014.31;4962069;28;45212;-77
2021/08/13 05:03:22;;;;;;;;;6.50;5.00;;;;;20.68;59.12;102015.28;4962311;28;45257;-79
2021/08/13 05:05:48;;;;;;;;;5.50;5.50;;;;;20.68;58.55;102009.09;4962817;28;45726;-79
2021/08/13 05:08:13;;;;;;;;;3.00;3.00;;;;;20.67;58.39;102016.22;4961563;28;45347;-79
2021/08/13 05:10:39;;;;;;;;;7.00;5.00;;;;;20.68;58.79;102023.31;4964827;28;45300;-79
2021/08/13 05:13:05;;;;;;;;;9.00;5.25;;;;;20.69;59.45;102019.66;4953145;28;45393;-79
2021/08/13 05:15:30;;;;;;;;;5.25;4.25;;;;;20.71;59.14;102026.75;4942187;28;45343;-79
2021/08/13 05:17:55;;;;;;;;;3.50;3.50;;;;;20.72;59.92;102029.31;4941149;28;47273;-78
2021/08/13 05:20:21;;;;;;;;;5.50;5.25;;;;;20.71;60.01;102032.09;4925794;28;45538;-79
2021/08/13 05:22:46;;;;;;;;;5.25;5.25;;;;;20.72;59.96;102041.84;4955599;28;45273;-79
2021/08/13 05:25:14;;;;;;;;;6.25;6.25;;;;;20.71;60.37;102043.66;4955809;28;45235;-78
2021/08/13 05:27:40;;;;;;;;;7.00;6.00;;;;;20.69;60.52;102051.72;4942395;28;47312;-78
2021/08/13 05:30:07;;;;;;;;;6.25;5.25;;;;;20.67;59.93;102064.31;4943166;28;45292;-78
2021/08/13 05:32:32;;;;;;;;;7.75;7.50;;;;;20.64;59.70;102053.78;4954339;28;45566;-79
2021/08/13 05:34:58;;;;;;;;;9.00;7.25;;;;;20.63;59.45;102067.25;4942599;28;45235;-78
2021/08/13 05:37:23;;;;;;;;;5.50;5.00;;;;;20.62;59.54;102074.38;4942652;28;45225;-78
2021/08/13 05:39:48;;;;;;;;;6.50;5.50;;;;;20.60;59.37;102067.41;4942506;28;45260;-78
2021/08/13 05:42:14;;;;;;;;;7.50;6.50;;;;;20.60;59.22;102070.06;4953445;28;45385;-79
2021/08/13 05:44:39;;;;;;;;;7.00;7.00;;;;;20.60;59.45;102065.59;4952679;28;45216;-79
2021/08/13 05:47:05;;;;;;;;;6.50;6.00;;;;;20.61;59.76;102072.69;4943875;28;45596;-78
2021/08/13 05:49:31;;;;;;;;;4.25;4.25;;;;;20.61;59.40;102067.34;4942247;28;45580;-79
2021/08/13 05:51:57;;;;;;;;;6.75;5.50;;;;;20.62;59.59;102071.72;4953918;28;45246;-79
2021/08/13 05:54:23;;;;;;;;;5.00;4.00;;;;;20.64;59.97;102074.31;4941945;28;45484;-79
2021/08/13 05:56:48;;;;;;;;;7.00;7.00;;;;;20.66;59.25;102073.28;4940644;28;47674;-78
2021/08/13 05:59:13;;;;;;;;;7.00;6.75;;;;;20.68;59.41;102074.06;4941879;28;45343;-80
2021/08/13 06:01:39;;;;;;;;;5.25;5.25;;;;;20.72;59.33;102079.25;4942217;28;45435;-79
2021/08/13 06:04:04;;;;;;;;;6.75;5.50;;;;;20.76;59.70;102086.13;4947295;28;45279;-79
2021/08/13 06:06:29;;;;;;;;;5.00;4.00;;;;;20.82;60.35;102091.13;4941161;28;46233;-79
2021/08/13 06:08:55;;;;;;;;;5.25;5.00;;;;;20.88;59.38;102097.94;4926808;28;46432;-79
2021/08/13 06:11:20;;;;;;;;;5.75;5.00;;;;;20.88;58.95;102084.59;4948597;28;45397;-79
2021/08/13 06:13:45;;;;;;;;;5.00;5.00;;;;;20.92;58.76;102088.78;4938620;28;46785;-79
2021/08/13 06:16:11;;;;;;;;;7.00;5.25;;;;;20.94;58.34;102070.88;4936089;28;45335;-79
2021/08/13 06:18:37;;;;;;;;;6.00;4.25;;;;;20.98;58.71;102074.25;4926338;28;45243;-79
2021/08/13 06:21:03;;;;;;;;;6.00;4.25;;;;;20.98;58.31;102066.22;4930562;28;45494;-79
2021/08/13 06:23:28;;;;;;;;;3.00;3.00;;;;;20.96;57.90;102074.34;4955908;28;45353;-79
2021/08/13 06:25:53;;;;;;;;;8.00;5.00;;;;;20.95;57.82;102074.41;4951275;28;45297;-80
2021/08/13 06:28:19;;;;;;;;;7.25;6.25;;;;;20.94;58.14;102084.22;4947040;28;45219;-80
2021/08/13 06:30:44;;;;;;;;;7.00;4.00;;;;;20.94;58.13;102091.41;4937449;28;45405;-80
2021/08/13 06:33:09;;;;;;;;;6.00;4.25;;;;;20.93;57.98;102090.53;4935838;28;45320;-80
2021/08/13 06:35:35;;;;;;;;;5.00;5.00;;;;;20.95;58.04;102087.75;4947037;28;45440;-79
2021/08/13 06:38:00;;;;;;;;;4.25;4.00;;;;;20.99;58.06;102092.00;4931396;28;45490;-80
2021/08/13 06:40:25;;;;;;;;;5.25;5.25;;;;;21.01;57.63;102098.16;4940006;28;45257;-80
2021/08/13 06:42:52;;;;;;;;;6.50;5.00;;;;;21.05;57.95;102101.50;4941784;28;45507;-80
2021/08/13 06:45:20;;;;;;;;;5.25;4.75;;;;;21.09;57.68;102105.72;4941562;28;45467;-79
2021/08/13 06:47:46;;;;;;;;;9.50;8.00;;;;;21.12;57.88;102111.78;4949346;28;45233;-80
2021/08/13 06:50:13;;;;;;;;;2.00;2.00;;;;;21.13;57.38;102113.50;4941721;28;45434;-80
2021/08/13 06:52:38;;;;;;;;;3.00;3.00;;;;;21.10;56.97;102111.00;4941746;28;45192;-80
2021/08/13 06:55:05;;;;;;;;;4.00;4.00;;;;;21.09;57.12;102117.28;4940313;28;45377;-80
2021/08/13 06:57:30;;;;;;;;;4.50;3.00;;;;;21.11;57.14;102110.03;4940332;28;45526;-80
2021/08/13 06:59:56;;;;;;;;;4.00;3.00;;;;;21.12;57.18;102114.44;4944158;28;45339;-80
2021/08/13 07:02:21;;;;;;;;;4.00;4.00;;;;;21.16;57.21;102111.59;4953717;28;47170;-79
2021/08/13 07:04:46;;;;;;;;;4.25;3.25;;;;;21.20;57.18;102113.16;4923096;28;48242;-80
2021/08/13 07:07:13;;;;;;;;;4.50;4.00;;;;;21.24;57.15;102120.03;4940621;28;45410;-80
2021/08/13 07:09:39;;;;;;;;;4.75;3.75;;;;;21.25;57.64;102116.44;4941227;28;45318;-80
2021/08/13 07:12:05;;;;;;;;;6.00;3.75;;;;;21.27;56.90;102113.66;4940458;28;45285;-79
2021/08/13 07:14:30;;;;;;;;;4.25;3.25;;;;;21.29;57.07;102117.97;4940532;28;46383;-79
2021/08/13 07:16:55;;;;;;;;;7.25;5.00;;;;;21.34;57.07;102120.38;4924107;28;45213;-79
2021/08/13 07:19:21;;;;;;;;;3.00;3.00;;;;;21.38;57.57;102129.09;4941415;28;45282;-79
2021/08/13 07:21:46;;;;;;;;;3.25;2.25;;;;;21.41;56.53;102137.78;4949538;28;45366;-79
2021/08/13 07:24:11;;;;;;;;;5.75;4.00;;;;;21.40;56.74;102129.88;4951006;28;46172;-79
2021/08/13 07:26:36;;;;;;;;;4.00;3.00;;;;;21.45;56.99;102133.13;4944297;28;45267;-80
2021/08/13 07:29:02;;;;;;;;;2.25;2.25;;;;;21.50;57.24;102138.22;4944645;28;45316;-80
2021/08/13 07:31:27;;;;;;;;;5.00;4.00;;;;;21.52;56.50;102141.66;4943703;28;45458;-79
2021/08/13 07:33:53;;;;;;;;;4.00;3.50;;;;;21.54;56.65;102140.63;4953970;28;45222;-79
2021/08/13 07:36:18;;;;;;;;;5.00;3.00;;;;;21.61;56.29;102145.63;4945130;28;45457;-80
2021/08/13 07:38:44;;;;;;;;;4.00;4.00;;;;;21.63;56.15;102146.41;4943973;28;45391;-81
2021/08/13 07:41:10;;;;;;;;;5.75;3.50;;;;;21.66;56.21;102151.56;4943359;28;45626;-80
2021/08/13 07:43:37;;;;;;;;;5.00;4.75;;;;;21.73;56.57;102160.09;4944515;28;46211;-80
2021/08/13 07:46:03;;;;;;;;;12.50;7.00;;;;;21.79;56.23;102160.59;4927002;28;45779;-79
2021/08/13 07:48:29;;;;;;;;;10.00;10.00;;;;;21.85;55.74;102164.75;4942889;28;45303;-80
2021/08/13 07:50:54;;;;;;;;;11.00;8.50;;;;;21.89;55.63;102166.31;4943765;28;45362;-85
2021/08/13 07:53:20;;;;;;;;;4.75;4.75;;;;;21.95;55.90;102173.13;4945307;28;46564;-77
2021/08/13 08:05:26;;;;;;;;;5.25;4.00;;;;;21.65;56.30;102185.50;5093602;27;45448;-81
2021/08/13 08:07:51;;;;;;;;;6.25;4.00;;;;;21.76;55.95;102192.00;5074653;27;45488;-78
2021/08/13 08:10:17;;;;;;;;;4.00;3.25;;;;;21.85;56.18;102204.88;5075915;27;45975;-78
2021/08/13 08:12:42;;;;;;;;;4.00;3.00;;;;;21.92;56.06;102192.03;5075384;28;45652;-78
2021/08/13 08:15:09;;;;;;;;;3.25;3.25;;;;;21.97;55.35;102202.47;5076039;27;45612;-78
2021/08/13 08:17:34;;;;;;;;;4.00;4.00;;;;;22.02;55.70;102209.28;5065125;27;45652;-78
2021/08/13 08:20:00;;;;;;;;;3.00;3.00;;;;;22.08;55.58;102207.16;5074251;28;45793;-78
2021/08/13 08:22:25;;;;;;;;;4.00;4.00;;;;;22.12;55.25;102200.69;5076197;27;45258;-78
2021/08/13 08:24:50;;;;;;;;;3.25;3.25;;;;;22.21;54.59;102207.31;5075146;27;46403;-77
2021/08/13 08:27:16;;;;;;;;;7.50;3.75;;;;;22.25;55.25;102206.16;5064644;28;45198;-77
2021/08/13 08:29:41;;;;;;;;;3.25;2.50;;;;;22.29;54.53;102198.81;5073517;28;45273;-77
2021/08/13 08:32:06;;;;;;;;;4.50;4.00;;;;;22.33;53.32;102200.34;5070729;28;45318;-77
2021/08/13 08:34:32;;;;;;;;;3.25;3.00;;;;;22.37;54.47;102193.88;5071214;28;49414;-78
2021/08/13 08:36:57;;;;;;;;;5.25;4.25;;;;;22.41;55.17;102198.09;5074892;28;45649;-78
2021/08/13 08:39:23;;;;;;;;;5.00;4.00;;;;;22.49;53.70;102197.63;5076673;27;45410;-78
2021/08/13 08:41:49;;;;;;;;;4.75;3.00;;;;;22.51;54.11;102208.22;5075170;27;45414;-78
2021/08/13 08:44:16;;;;;;;;;5.00;5.00;;;;;22.52;53.71;102215.31;5076246;27;46254;-78
2021/08/13 08:46:45;;;;;;;;;3.00;3.00;;;;;22.55;54.44;102217.78;5075079;27;45252;-78
2021/08/13 08:49:11;;;;;;;;;4.75;4.00;;;;;22.59;54.38;102220.19;5062939;28;45234;-77
2021/08/13 08:51:40;;;;;;;;;3.75;3.00;;;;;22.64;54.21;102219.94;5070093;27;45173;-78
2021/08/13 08:54:07;;;;;;;;;5.75;5.00;;;;;22.69;54.20;102217.00;5074499;28;47140;-78
2021/08/13 08:56:32;;;;;;;;;6.75;5.00;;;;;22.70;54.33;102206.19;5075225;27;45511;-79
2021/08/13 08:58:58;;;;;;;;;3.75;3.75;;;;;22.74;54.08;102217.59;5073359;28;45255;-78
2021/08/13 09:01:25;;;;;;;;;3.50;3.50;;;;;22.77;53.91;102206.66;5073862;28;45874;-79
2021/08/13 09:03:51;;;;;;;;;3.50;3.50;;;;;22.80;53.63;102210.97;5074601;28;45630;-78
2021/08/13 09:06:16;;;;;;;;;4.75;4.50;;;;;22.83;54.46;102216.13;5074250;28;45489;-78
2021/08/13 09:08:42;;;;;;;;;9.25;5.00;;;;;22.86;53.55;102209.72;5075941;27;45199;-78
2021/08/13 13:16:06;;;;;;;;;10.75;6.50;;;;;25.16;50.34;102126.44;5342235;23;45566;-80
2021/08/13 13:18:32;;;;;;;;;12.50;12.00;;;;;25.24;50.80;102118.63;4977056;28;45286;-80
2021/08/13 13:20:57;;;;;;;;;9.75;8.75;;;;;25.32;51.38;102114.50;4981434;28;45245;-80
2021/08/13 13:23:33;;;;;;;;;9.25;9.00;;;;;25.40;50.50;102112.09;4980234;28;46406;-80
2021/08/13 13:26:09;;;;;;;;;9.00;7.25;;;;;25.55;50.65;102110.09;4975242;28;45425;-80
2021/08/13 13:28:34;;;;;;;;;11.25;10.50;;;;;25.63;50.23;102115.72;4981257;28;45487;-80
2021/08/13 13:31:11;;;;;;;;;10.00;9.75;;;;;25.61;50.92;102097.97;4981448;28;45308;-80
2021/08/13 13:33:37;;;;;;;;;11.75;9.00;;;;;25.51;50.65;102097.81;4980388;28;45466;-80
2021/08/13 13:36:05;;;;;;;;;12.00;11.00;;;;;25.54;49.32;102099.44;4981541;28;45321;-81
2021/08/13 13:38:33;;;;;;;;;11.50;11.50;;;;;25.69;50.63;102100.94;4982049;28;45446;-80
2021/08/13 13:40:59;;;;;;;;;9.25;9.25;;;;;25.81;49.58;102088.41;4982205;28;45474;-80
2021/08/13 13:43:24;;;;;;;;;7.25;6.75;;;;;25.90;49.26;102091.38;4981214;28;45419;-80
2021/08/13 13:45:54;;;;;;;;;9.25;8.50;;;;;25.96;48.69;102093.56;4981177;28;45295;-80
2021/08/13 13:48:20;;;;;;;;;9.00;9.00;;;;;25.98;48.56;102099.69;4982361;28;45177;-80
2021/08/13 13:50:46;;;;;;;;;8.50;7.75;;;;;26.00;49.54;102086.97;4981900;28;45513;-79
2021/08/13 13:53:12;;;;;;;;;12.00;10.50;;;;;25.94;49.73;102098.22;4981974;28;45229;-79
2021/08/13 13:55:37;;;;;;;;;9.75;7.50;;;;;25.88;49.59;102096.03;4980135;28;45263;-79
2021/08/13 13:58:03;;;;;;;;;6.75;6.75;;;;;25.83;48.05;102091.84;4980376;28;45314;-79
2021/08/13 14:00:28;;;;;;;;;8.75;8.25;;;;;25.93;48.03;102094.66;4981687;28;45257;-79
2021/08/13 14:02:54;;;;;;;;;9.50;8.50;;;;;25.98;47.53;102091.59;4980896;28;45591;-79
2021/08/13 14:05:19;;;;;;;;;6.00;6.00;;;;;26.04;49.28;102083.06;4981519;28;45344;-79
2021/08/13 14:07:47;;;;;;;;;8.75;8.75;;;;;26.01;48.89;102077.91;4982051;28;45439;-79
2021/08/13 14:10:24;;;;;;;;;8.25;8.25;;;;;25.91;49.27;102083.16;4981866;28;45324;-79
2021/08/13 14:12:50;;;;;;;;;8.50;7.50;;;;;25.87;49.57;102083.53;4980433;28;46797;-79
2021/08/13 14:15:18;;;;;;;;;12.50;10.75;;;;;25.92;49.54;102092.09;4983254;28;45366;-79
2021/08/13 14:17:45;;;;;;;;;8.25;8.25;;;;;26.01;49.93;102094.06;5001164;28;45223;-79
2021/08/13 14:20:12;;;;;;;;;7.25;6.50;;;;;26.15;48.23;102089.44;5001289;28;45682;-79
2021/08/13 14:22:39;;;;;;;;;8.00;8.00;;;;;26.26;48.42;102094.84;4999984;28;45513;-79
2021/08/13 14:25:06;;;;;;;;;8.75;8.25;;;;;26.29;48.05;102091.03;5000893;28;45435;-80
2021/08/13 14:27:31;;;;;;;;;7.00;7.00;;;;;26.36;48.14;102092.25;4999775;28;45643;-79
2021/08/13 14:29:57;;;;;;;;;9.50;8.00;;;;;26.45;47.81;102089.81;5000455;28;45206;-79
2021/08/13 14:32:22;;;;;;;;;7.25;7.00;;;;;26.51;47.76;102079.44;5004039;28;45355;-79
2021/08/13 14:34:47;;;;;;;;;9.75;9.50;;;;;26.57;47.37;102083.44;4998714;28;45227;-79
2021/08/13 14:37:13;;;;;;;;;6.50;6.50;;;;;26.71;45.72;102082.34;4997232;28;46102;-79
2021/08/13 14:39:38;;;;;;;;;9.50;8.75;;;;;26.88;45.82;102081.94;5000499;28;45446;-79
2021/08/13 14:42:03;;;;;;;;;11.00;9.00;;;;;27.01;45.82;102081.78;4997906;28;45268;-79
2021/08/13 14:44:29;;;;;;;;;8.25;7.50;;;;;27.11;45.65;102080.03;5007171;28;45655;-79
2021/08/13 14:46:55;;;;;;;;;8.50;7.50;;;;;27.16;46.39;102072.41;4995413;28;45430;-79
2021/08/13 14:49:20;;;;;;;;;6.75;6.75;;;;;27.14;45.32;102066.28;4981152;28;45358;-79
2021/08/13 14:51:46;;;;;;;;;9.50;6.75;;;;;27.19;45.68;102066.75;4971625;28;46230;-77
2021/08/13 14:54:11;;;;;;;;;10.00;7.75;;;;;27.27;44.52;102063.44;5000525;28;45345;-77
2021/08/13 14:56:36;;;;;;;;;8.25;7.50;;;;;27.40;45.83;102071.34;4970330;28;45306;-77
2021/08/13 14:59:03;;;;;;;;;6.50;6.50;;;;;27.40;44.09;102070.50;4983268;28;45988;-77
2021/08/13 15:01:29;;;;;;;;;7.00;7.00;;;;;27.43;45.01;102072.94;5000215;28;46254;-77
2021/08/13 15:03:55;;;;;;;;;8.00;8.00;;;;;27.35;44.49;102070.88;5000466;28;45459;-77
2021/08/13 15:06:20;;;;;;;;;9.00;9.00;;;;;27.33;44.67;102077.41;4997882;28;45214;-77
2021/08/13 15:08:45;;;;;;;;;7.50;7.50;;;;;27.33;43.65;102072.84;4997550;28;45934;-77
2021/08/13 15:11:12;;;;;;;;;7.25;7.00;;;;;27.33;45.50;102059.38;5000041;28;45362;-77
2021/08/13 15:13:37;;;;;;;;;9.00;9.00;;;;;27.17;45.26;102066.03;4995081;28;45673;-77
2021/08/13 15:16:03;;;;;;;;;9.00;9.00;;;;;27.14;45.65;102060.91;5005477;28;45462;-76
2021/08/13 15:18:28;;;;;;;;;10.25;9.50;;;;;27.14;45.67;102052.81;4999744;28;45465;-77
2021/08/13 15:20:53;;;;;;;;;7.75;7.00;;;;;27.19;44.36;102063.22;5000245;28;45371;-77
2021/08/13 15:23:19;;;;;;;;;9.50;7.50;;;;;27.28;44.63;102054.34;5000141;28;45305;-77
2021/08/13 15:25:44;;;;;;;;;7.00;7.00;;;;;27.36;44.76;102045.59;5000231;28;45567;-77
2021/08/13 15:28:10;;;;;;;;;8.50;8.50;;;;;27.44;44.41;102041.38;4998186;28;45300;-77
2021/08/13 15:30:35;;;;;;;;;7.00;7.00;;;;;27.47;44.51;102033.03;4999152;28;46267;-77
2021/08/13 15:33:01;;;;;;;;;8.00;8.00;;;;;27.34;45.45;102031.38;5000342;28;45271;-77